Time;durP1;ratioP1;P1;durP2;ratioP2;P2;SDS_P1;SDS_P2;PMS_P1;PMS_P2;Temp;Humidity;BMP_temperature;BMP_pressure;BME280_temperature;BME280_humidity;BME280_pressure;Samples;Min_cycle;Max_cycle;Signal;HPM_P1;HPM_P2
2023/06/03 00:00:54;;;;;;;10.38;7.05;;;;;;;;;;5073342;28;20584;-68
2023/06/03 00:03:20;;;;;;;12.38;7.68;;;;;;;;;;5073193;28;20039;-70
2023/06/03 00:05:46;;;;;;;13.68;8.27;;;;;;;;;;5073219;28;20107;-69
2023/06/03 00:08:12;;;;;;;11.13;6.80;;;;;;;;;;5073023;28;20059;-69
2023/06/03 00:10:38;;;;;;;14.15;6.78;;;;;;;;;;5068306;28;20029;-69
2023/06/03 00:13:04;;;;;;;9.57;6.18;;;;;;;;;;5072972;28;20020;-69
2023/06/03 00:15:30;;;;;;;10.60;6.57;;;;;;;;;;5072904;28;20504;-70
2023/06/03 00:17:56;;;;;;;14.63;6.70;;;;;;;;;;5073473;28;20085;-69
2023/06/03 00:20:24;;;;;;;17.70;7.07;;;;;;;;;;5072454;28;20084;-69
2023/06/03 00:22:51;;;;;;;14.82;7.80;;;;;;;;;;5072151;28;20024;-69
2023/06/03 00:25:17;;;;;;;17.92;6.88;;;;;;;;;;5072607;28;20044;-68
2023/06/03 00:27:43;;;;;;;13.80;6.35;;;512.60;2380.80;;;;;;5071710;28;20052;-69
2023/06/03 00:30:09;;;;;;;13.68;7.32;;;512.50;2380.80;;;;;;5071516;28;20025;-69
2023/06/03 00:32:35;;;;;;;18.98;7.18;;;512.40;2380.80;;;;;;5071506;28;20107;-69
2023/06/03 00:35:01;;;;;;;18.23;6.88;;;512.50;2380.80;;;;;;5072636;28;20035;-70
2023/06/03 00:37:27;;;;;;;12.65;6.38;;;512.40;2380.80;;;;;;5073237;28;20083;-78
2023/06/03 00:39:52;;;;;;;13.48;6.30;;;512.40;2380.80;;;;;;5073795;28;20078;-70
2023/06/03 00:42:18;;;;;;;12.35;6.35;;;512.50;2380.80;;;;;;5073011;28;20560;-72
2023/06/03 00:44:44;;;;;;;11.50;6.82;;;512.50;2380.80;;;;;;5063598;28;20037;-70
2023/06/03 00:47:09;;;;;;;12.05;6.60;;;512.50;2380.80;;;;;;5069531;28;20024;-70
2023/06/03 00:49:35;;;;;;;17.10;7.53;;;512.50;2380.80;;;;;;5072523;28;20020;-69
2023/06/03 00:52:05;;;;;;;14.77;6.28;;;512.50;2380.80;;;;;;5072603;28;20020;-78
2023/06/03 00:54:31;;;;;;;20.45;6.28;;;512.50;2380.80;;;;;;5069943;28;20032;-70
2023/06/03 00:56:57;;;;;;;11.02;6.07;;;512.50;2380.80;;;;;;5062866;28;20017;-70
2023/06/03 00:59:23;;;;;;;19.58;6.75;;;512.30;2380.80;;;;;;5066036;28;20093;-71
2023/06/03 01:01:49;;;;;;;9.80;6.47;;;512.40;2380.80;;;;;;5072382;28;20470;-76
2023/06/03 01:04:17;;;;;;;15.70;7.70;;;512.20;2380.80;;;;;;5072381;28;20557;-70
2023/06/03 01:06:55;;;;;;;12.10;6.47;;;512.30;2380.80;;;;;;5072665;28;20028;-70
2023/06/03 01:09:36;;;;;;;13.60;6.35;;;512.30;2380.80;;;;;;5071202;28;20020;-70
2023/06/03 01:12:14;;;;;;;14.35;6.63;;;512.40;2380.80;;;;;;5071172;28;20020;-69
2023/06/03 01:14:40;;;;;;;18.13;7.10;;;512.40;2380.80;;;;;;5070794;28;20040;-69
2023/06/03 01:17:09;;;;;;;16.00;7.25;;;512.30;2380.80;;;;;;5072268;28;20016;-70
2023/06/03 01:19:49;;;;;;;18.58;7.45;;;512.30;2380.80;;;;;;5071022;28;20044;-70
2023/06/03 01:22:20;;;;;;;17.38;11.10;;;512.30;2380.80;;;;;;5074159;28;20029;-70
2023/06/03 01:24:53;;;;;;;21.15;11.60;;;512.40;2380.80;;;;;;5076373;28;20051;-76
2023/06/03 01:27:20;;;;;;;33.15;22.40;;;512.30;2380.80;;;;;;5074297;28;20008;-70
2023/06/03 01:29:46;;;;;;;41.28;31.30;;;512.10;2380.80;;;;;;5076171;28;20024;-69
2023/06/03 01:32:16;;;;;;;44.95;32.03;;;512.10;2380.80;;;;;;5075756;28;20165;-75
2023/06/03 01:34:42;;;;;;;43.05;33.22;;;512.10;2380.80;;;;;;5074066;28;20105;-70
2023/06/03 01:37:09;;;;;;;42.97;34.50;;;512.10;2380.80;;;;;;5076062;28;20035;-74
2023/06/03 01:39:40;;;;;;;47.35;30.77;;;512.00;2380.80;;;;;;5076208;28;20493;-82
2023/06/03 01:42:10;;;;;;;48.08;33.25;;;512.00;2380.80;;;;;;5057288;28;20032;-69
2023/06/03 01:44:37;;;;;;;48.05;33.88;;;512.00;2380.80;;;;;;5073928;28;20497;-70
2023/06/03 01:47:04;;;;;;;48.97;32.33;;;487.30;2380.80;;;;;;5076061;28;20029;-79
2023/06/03 01:49:31;;;;;;;37.67;30.55;;;487.30;2380.80;;;;;;5076013;28;20016;-69
2023/06/03 01:52:00;;;;;;;38.08;27.48;;;512.00;2380.80;;;;;;5075933;28;20024;-82
2023/06/03 01:54:28;;;;;;;35.35;26.00;;;512.00;2380.80;;;;;;5075787;28;20040;-69
2023/06/03 01:56:54;;;;;;;34.55;24.75;;;512.10;2380.80;;;;;;5075446;28;20047;-70
2023/06/03 01:59:24;;;;;;;27.85;21.90;;;512.10;2380.80;;;;;;5075472;28;20021;-70
2023/06/03 02:01:54;;;;;;;23.88;16.85;;;512.30;2380.80;;;;;;5075441;28;20032;-69
2023/06/03 02:04:20;;;;;;;20.20;14.35;;;512.30;2380.80;;;;;;5063576;28;20068;-70
2023/06/03 02:06:53;;;;;;;17.42;13.45;;;512.40;2380.80;;;;;;5076185;28;20059;-76
2023/06/03 02:09:24;;;;;;;18.90;15.32;;;512.40;2380.80;;;;;;5075980;28;20016;-71
2023/06/03 02:12:00;;;;;;;20.95;15.25;;;512.40;2380.80;;;;;;5076428;28;20016;-76
2023/06/03 02:14:27;;;;;;;23.25;16.23;;;512.40;2380.80;;;;;;5076314;28;20025;-77
2023/06/03 02:16:55;;;;;;;19.80;14.48;;;512.40;2380.80;;;;;;5075963;28;20021;-71
2023/06/03 02:19:24;;;;;;;22.15;14.98;;;512.50;2380.80;;;;;;5076028;28;20032;-74
2023/06/03 02:21:51;;;;;;;18.77;15.13;;;512.60;2380.80;;;;;;5075874;28;20032;-70
2023/06/03 02:24:16;;;;;;;23.60;15.13;;;512.50;2380.80;;;;;;5075975;28;20048;-81
2023/06/03 02:26:52;;;;;;;21.42;13.85;;;512.40;2380.80;;;;;;5062787;28;20024;-70
2023/06/03 02:29:27;;;;;;;22.10;14.10;;;512.30;2380.80;;;;;;5075841;28;20491;-70
2023/06/03 02:31:57;;;;;;;21.60;13.95;;;512.10;2380.80;;;;;;5075754;28;20044;-82
2023/06/03 02:34:23;;;;;;;21.00;14.50;;;512.20;2380.80;;;;;;5065892;28;20021;-71
2023/06/03 02:36:49;;;;;;;20.25;12.43;;;512.20;2380.80;;;;;;5072342;28;20355;-75
2023/06/03 02:39:16;;;;;;;18.88;11.02;;;512.10;2380.80;;;;;;5075878;28;20029;-70
2023/06/03 02:41:43;;;;;;;21.65;12.20;;;512.10;2380.80;;;;;;5075641;28;20039;-70
2023/06/03 02:44:09;;;;;;;19.30;12.25;;;512.00;2380.80;;;;;;5075736;28;20470;-82
2023/06/03 02:46:35;;;;;;;21.45;11.50;;;512.20;2380.80;;;;;;5075236;28;20091;-69
2023/06/03 02:49:06;;;;;;;16.45;10.30;;;512.30;2380.80;;;;;;5075381;28;20359;-79
2023/06/03 02:51:32;;;;;;;20.58;10.85;;;512.30;2380.80;;;;;;5075486;28;20469;-70
2023/06/03 02:53:57;;;;;;;18.15;10.82;;;512.30;2380.80;;;;;;5075772;28;20032;-70
2023/06/03 02:56:23;;;;;;;16.17;10.65;;;512.30;2380.80;;;;;;5075512;28;20028;-70
2023/06/03 02:58:50;;;;;;;18.65;10.07;;;512.20;2380.80;;;;;;5075605;28;20028;-80
2023/06/03 03:01:17;;;;;;;17.50;10.43;;;512.30;2380.80;;;;;;5062106;28;20031;-69
2023/06/03 03:03:43;;;;;;;15.88;11.23;;;512.30;2380.80;;;;;;5074869;28;20117;-75
2023/06/03 03:06:15;;;;;;;18.48;9.57;;;512.30;2380.80;;;;;;5075150;28;20211;-75
2023/06/03 03:08:41;;;;;;;16.45;11.10;;;512.20;2380.80;;;;;;5057022;28;20416;-69
2023/06/03 03:11:09;;;;;;;15.02;11.27;;;512.10;2380.80;;;;;;5075093;28;20082;-82
2023/06/03 03:13:35;;;;;;;17.15;11.35;;;512.00;2380.80;;;;;;5075070;28;20047;-69
2023/06/03 03:16:01;;;;;;;18.75;11.13;;;487.30;2380.80;;;;;;5075014;28;20029;-73
2023/06/03 03:18:27;;;;;;;15.90;11.30;;;487.30;2380.80;;;;;;5074358;28;20035;-81
2023/06/03 03:20:52;;;;;;;14.82;11.18;;;512.00;2380.80;;;;;;5074906;28;20020;-74
2023/06/03 03:23:18;;;;;;;15.07;11.20;;;512.00;2380.80;;;;;;5074845;28;20494;-82
2023/06/03 03:25:45;;;;;;;15.05;11.00;;;512.00;2380.80;;;;;;5074710;28;20085;-69
2023/06/03 03:28:11;;;;;;;15.40;12.23;;;512.10;2380.80;;;;;;5074508;28;20024;-81
2023/06/03 03:30:37;;;;;;;20.30;10.88;;;487.30;2380.80;;;;;;5074556;28;20059;-70
2023/06/03 03:33:05;;;;;;;26.17;11.10;;;487.10;2380.80;;;;;;5074412;28;20020;-81
2023/06/03 03:35:32;;;;;;;18.25;11.93;;;487.10;2380.80;;;;;;5061028;28;20032;-70
2023/06/03 03:37:58;;;;;;;20.50;11.70;;;487.10;2380.80;;;;;;5074856;28;20024;-78
2023/06/03 03:40:25;;;;;;;17.73;13.27;;;487.10;2380.80;;;;;;5074283;28;20019;-69
2023/06/03 03:42:55;;;;;;;21.63;12.70;;;487.30;2380.80;;;;;;5073701;28;20029;-70
2023/06/03 03:45:25;;;;;;;23.42;11.82;;;487.30;2380.80;;;;;;5074380;28;20064;-77
2023/06/03 03:47:52;;;;;;;16.20;11.27;;;487.30;2380.80;;;;;;5073928;28;20025;-69
2023/06/03 03:50:30;;;;;;;15.18;11.55;;;487.30;2380.80;;;;;;5074130;28;20083;-69
2023/06/03 03:53:03;;;;;;;16.30;11.52;;;512.00;2380.80;;;;;;5074069;28;20095;-82
2023/06/03 03:55:29;;;;;;;15.80;12.18;;;512.00;2380.80;;;;;;5074316;28;20027;-76
2023/06/03 03:57:54;;;;;;;18.52;12.18;;;512.10;2380.80;;;;;;5074070;28;20029;-81
2023/06/03 04:00:21;;;;;;;16.60;12.52;;;512.20;2380.80;;;;;;5073924;28;20028;-70
2023/06/03 04:02:49;;;;;;;19.52;12.60;;;512.10;2380.80;;;;;;5073548;28;20029;-70
2023/06/03 04:05:17;;;;;;;17.85;13.50;;;512.10;2380.80;;;;;;5073692;28;20032;-70
2023/06/03 04:07:44;;;;;;;15.45;11.88;;;512.20;2380.80;;;;;;5073445;28;20024;-71
2023/06/03 04:10:11;;;;;;;19.02;13.18;;;512.20;2380.80;;;;;;5073701;28;20024;-70
2023/06/03 04:12:37;;;;;;;19.33;13.77;;;512.10;2380.80;;;;;;5073852;28;20032;-80
2023/06/03 04:15:03;;;;;;;19.50;13.82;;;512.10;2380.80;;;;;;5073783;28;20028;-69
2023/06/03 04:17:30;;;;;;;20.17;13.98;;;512.00;2380.80;;;;;;5073442;28;20070;-77
2023/06/03 04:19:56;;;;;;;21.30;14.65;;;512.00;2380.80;;;;;;5073861;28;20083;-70
2023/06/03 04:22:24;;;;;;;24.70;14.20;;;512.00;2380.80;;;;;;5073897;28;20027;-80
2023/06/03 04:25:00;;;;;;;21.83;15.30;;;512.00;2380.80;;;;;;5073385;28;20032;-70
2023/06/03 04:27:26;;;;;;;24.27;15.18;;;487.30;2380.80;;;;;;5073360;28;20025;-69
2023/06/03 04:29:52;;;;;;;22.58;13.90;;;487.30;2380.80;;;;;;5073162;28;20466;-70
2023/06/03 04:32:17;;;;;;;19.67;14.38;;;487.30;2380.80;;;;;;5073463;28;20413;-79
2023/06/03 04:34:50;;;;;;;22.48;15.30;;;487.30;2380.80;;;;;;5060888;28;20036;-70
2023/06/03 04:37:16;;;;;;;24.75;16.42;;;487.20;2380.80;;;;;;5060378;28;20487;-74
2023/06/03 04:39:41;;;;;;;20.27;16.00;;;487.10;2380.80;;;;;;5073187;28;20033;-70
2023/06/03 04:42:07;;;;;;;23.25;15.68;;;487.10;2380.80;;;;;;5070218;28;20031;-69
2023/06/03 04:44:34;;;;;;;18.58;14.68;;;487.10;2380.80;;;;;;5069864;28;20107;-70
2023/06/03 04:47:00;;;;;;;23.33;15.25;;;487.10;2380.80;;;;;;5072744;28;20028;-68
2023/06/03 04:49:27;;;;;;;22.58;12.63;;;487.10;2380.80;;;;;;5072533;28;20020;-69
2023/06/03 04:51:53;;;;;;;21.58;14.07;;;487.10;2380.80;;;;;;5072588;28;20031;-69
2023/06/03 04:54:23;;;;;;;20.48;13.63;;;487.10;2380.80;;;;;;5071921;28;20017;-69
2023/06/03 04:56:49;;;;;;;17.90;13.07;;;487.20;2380.80;;;;;;5072599;28;20083;-69
2023/06/03 04:59:15;;;;;;;21.00;12.82;;;487.10;2380.80;;;;;;5069214;28;20025;-69
2023/06/03 05:01:44;;;;;;;23.58;13.00;;;487.10;2380.80;;;;;;5072507;28;20032;-69
2023/06/03 05:04:13;;;;;;;23.05;11.95;;;487.10;2380.80;;;;;;5072079;28;20119;-71
2023/06/03 05:06:39;;;;;;;18.30;11.50;;;487.10;2380.80;;;;;;5072339;28;20031;-70
2023/06/03 05:09:05;;;;;;;18.45;11.02;;;487.10;2380.80;;;;;;5069285;28;20033;-69
2023/06/03 05:11:31;;;;;;;15.68;10.32;;;487.10;2380.80;;;;;;5071128;28;20035;-70
2023/06/03 05:13:57;;;;;;;17.42;9.63;;;487.10;2380.80;;;;;;5063583;28;20012;-70
2023/06/03 05:16:23;;;;;;;14.98;9.95;;;487.00;2380.80;;;;;;5068127;28;20161;-70
2023/06/03 05:18:48;;;;;;;17.83;9.98;;;487.10;2380.80;;;;;;5064436;28;20025;-70
2023/06/03 05:21:19;;;;;;;12.50;8.80;;;487.10;2380.80;;;;;;5068306;28;20021;-70
2023/06/03 05:23:45;;;;;;;15.90;9.15;;;487.10;2380.80;;;;;;5054258;28;20028;-73
2023/06/03 05:26:10;;;;;;;22.02;9.95;;;487.10;2380.80;;;;;;5071850;28;20027;-68
2023/06/03 05:28:36;;;;;;;15.77;9.75;;;487.10;2380.80;;;;;;5072120;28;20378;-70
2023/06/03 05:31:02;;;;;;;14.93;9.98;;;487.20;2380.80;;;;;;5071876;28;20468;-74
2023/06/03 05:33:30;;;;;;;14.35;8.60;;;487.20;2380.80;;;;;;5072235;28;20028;-69
2023/06/03 05:35:56;;;;;;;15.95;8.63;;;487.20;2380.80;;;;;;5066114;28;20100;-74
2023/06/03 05:38:22;;;;;;;14.52;9.30;;;487.30;2380.80;;;;;;5070529;28;20032;-70
2023/06/03 05:40:49;;;;;;;12.68;8.07;;;487.30;2380.80;;;;;;5072190;28;20021;-70
2023/06/03 05:43:15;;;;;;;10.88;8.82;;;487.30;2380.80;;;;;;5072043;28;20023;-70
2023/06/03 05:45:42;;;;;;;16.23;8.73;;;487.30;2380.80;;;;;;5071867;28;20040;-70
2023/06/03 05:48:08;;;;;;;21.35;9.05;;;512.00;2380.80;;;;;;5068842;28;20013;-68
2023/06/03 05:50:37;;;;;;;16.73;8.90;;;512.00;2380.80;;;;;;5057971;28;20429;-70
2023/06/03 05:53:03;;;;;;;17.77;9.82;;;512.10;2380.80;;;;;;5067394;28;20021;-70
2023/06/03 05:55:29;;;;;;;20.15;9.25;;;512.00;2380.80;;;;;;5071846;28;20382;-70
2023/06/03 05:57:55;;;;;;;16.52;9.45;;;512.20;2380.80;;;;;;5070150;28;20106;-70
2023/06/03 06:00:21;;;;;;;16.70;8.73;;;512.20;2380.80;;;;;;5071493;28;20028;-69
2023/06/03 06:02:47;;;;;;;24.77;10.57;;;512.30;2380.80;;;;;;5071932;28;20033;-72
2023/06/03 06:05:14;;;;;;;15.57;9.48;;;512.20;2380.80;;;;;;5067347;28;20037;-72
2023/06/03 06:07:39;;;;;;;16.92;8.68;;;512.30;2380.80;;;;;;5075269;28;20035;-69
2023/06/03 06:10:05;;;;;;;12.23;8.48;;;512.40;2380.80;;;;;;5075548;28;20028;-70
2023/06/03 06:12:31;;;;;;;18.38;8.68;;;512.40;2380.80;;;;;;5074583;28;20103;-69
2023/06/03 06:14:57;;;;;;;12.93;8.80;;;512.40;2380.80;;;;;;5067114;28;20460;-71
2023/06/03 06:17:22;;;;;;;20.40;8.38;;;512.30;2380.80;;;;;;5075398;28;20103;-72
2023/06/03 06:19:48;;;;;;;13.35;8.25;;;512.40;2380.80;;;;;;5075514;28;20028;-70
2023/06/03 06:22:14;;;;;;;17.45;8.80;;;512.50;2380.80;;;;;;5075147;28;20016;-69
2023/06/03 06:24:40;;;;;;;16.45;8.85;;;512.60;2380.80;;;;;;5075122;28;20098;-72
2023/06/03 06:27:07;;;;;;;16.85;9.15;;;512.60;2380.80;;;;;;5068913;28;20032;-69
2023/06/03 06:29:32;;;;;;;15.93;7.97;;;512.70;2380.80;;;;;;5075140;28;20085;-72
2023/06/03 06:31:59;;;;;;;20.10;9.40;;;512.70;2380.80;;;;;;5073363;28;20123;-71
2023/06/03 06:34:31;;;;;;;14.52;8.48;;;512.70;2380.80;;;;;;5074761;28;20027;-70
2023/06/03 06:36:58;;;;;;;13.02;8.35;;;512.90;2380.80;;;;;;5074814;28;20386;-69
2023/06/03 06:39:33;;;;;;;20.23;8.73;;;512.90;2380.80;;;;;;5075584;28;20063;-70
2023/06/03 06:42:28;;;;;;;14.95;8.63;;;537.60;2406.40;;;;;;5072481;28;20035;-71
2023/06/03 06:44:54;;;;;;;15.05;8.60;;;537.60;2406.40;;;;;;5073872;28;20040;-69
2023/06/03 06:47:25;;;;;;;17.50;8.82;;;537.80;2406.40;;;;;;5075148;28;20041;-70
2023/06/03 06:49:52;;;;;;;19.02;8.95;;;537.90;2406.40;;;;;;5074593;28;20032;-69
2023/06/03 06:52:19;;;;;;;16.65;8.50;;;538.00;2406.40;;;;;;5072432;28;20021;-70
2023/06/03 06:54:45;;;;;;;25.02;9.07;;;538.00;2406.40;;;;;;5073032;28;20501;-70
2023/06/03 06:57:17;;;;;;;18.10;8.23;;;538.10;2406.40;;;;;;5074194;28;20490;-70
2023/06/03 06:59:43;;;;;;;14.43;9.07;;;538.20;2406.40;;;;;;5071037;28;20405;-69
2023/06/03 07:02:09;;;;;;;14.20;9.13;;;538.30;2406.40;;;;;;5070739;28;20032;-70
2023/06/03 07:04:35;;;;;;;17.27;8.60;;;538.30;2406.40;;;;;;5074238;28;20036;-69
2023/06/03 07:07:00;;;;;;;13.32;6.97;;;538.40;2406.40;;;;;;5073256;28;20039;-70
2023/06/03 07:09:26;;;;;;;14.95;7.55;;;538.50;2406.40;;;;;;5073344;28;20020;-71
2023/06/03 07:11:52;;;;;;;14.65;8.40;;;563.20;2432.00;;;;;;5074226;28;20066;-69
2023/06/03 07:14:17;;;;;;;19.55;8.95;;;563.40;2432.00;;;;;;5054628;28;20549;-69
2023/06/03 07:16:43;;;;;;;15.25;8.52;;;563.50;2432.00;;;;;;5069088;28;20059;-71
2023/06/03 07:19:09;;;;;;;14.50;8.50;;;563.40;2432.00;;;;;;5072680;28;20028;-71
2023/06/03 07:21:35;;;;;;;18.08;8.73;;;563.50;2432.00;;;;;;5074172;28;20029;-72
2023/06/03 07:24:01;;;;;;;12.98;7.70;;;563.60;2432.00;;;;;;5067899;28;20115;-69
2023/06/03 07:26:33;;;;;;;16.55;8.40;;;563.70;2432.00;;;;;;5073906;28;20028;-73
2023/06/03 07:29:00;;;;;;;15.07;7.93;;;563.70;2432.00;;;;;;5070277;28;20024;-69
2023/06/03 07:31:29;;;;;;;14.65;7.70;;;563.70;2432.00;;;;;;5073403;28;20450;-71
2023/06/03 07:33:56;;;;;;;17.33;7.72;;;563.70;2432.00;;;;;;5073995;28;20082;-70
2023/06/03 07:36:24;;;;;;;15.35;8.40;;;563.70;2432.00;;;;;;5074202;28;20028;-73
2023/06/03 07:39:04;;;;;;;15.85;8.80;;;563.80;2432.00;;;;;;5073938;28;20067;-72
2023/06/03 07:41:45;;;;;;;13.65;8.60;;;563.80;2432.00;;;;;;5066176;28;20032;-71
2023/06/03 07:44:13;;;;;;;14.95;8.10;;;564.10;2432.00;;;;;;5066247;28;20032;-72
2023/06/03 07:46:40;;;;;;;15.43;7.95;;;564.10;2432.00;;;;;;5066507;28;20496;-73
2023/06/03 07:49:10;;;;;;;12.70;8.60;;;564.10;2432.00;;;;;;5073581;28;20017;-68
2023/06/03 07:51:40;;;;;;;11.93;8.43;;;564.00;2432.00;;;;;;5073605;28;20024;-70
2023/06/03 07:54:06;;;;;;;22.27;8.27;;;588.80;2432.00;;;;;;5073710;28;20056;-74
2023/06/03 07:56:33;;;;;;;14.43;7.38;;;589.00;2432.00;;;;;;5071810;28;20477;-69
2023/06/03 07:59:03;;;;;;;17.20;8.38;;;589.00;2432.00;;;;;;5073416;28;20081;-69
2023/06/03 08:01:28;;;;;;;14.57;8.30;;;589.00;2432.00;;;;;;5072834;28;20033;-71
2023/06/03 08:03:54;;;;;;;11.38;7.97;;;589.00;2432.00;;;;;;5073398;28;20032;-71
2023/06/03 08:06:25;;;;;;;14.18;8.52;;;589.00;2432.00;;;;;;5071944;28;20033;-73
2023/06/03 08:08:51;;;;;;;13.75;8.82;;;589.10;2432.00;;;;;;5072346;28;20073;-71
2023/06/03 08:11:16;;;;;;;16.40;8.50;;;589.10;2432.00;;;;;;5073445;28;20107;-80
2023/06/03 08:13:43;;;;;;;18.88;7.63;;;589.30;2432.00;;;;;;5073035;28;20027;-70
2023/06/03 08:16:13;;;;;;;14.88;7.57;;;589.30;2432.00;;;;;;5072842;28;20389;-71
2023/06/03 08:18:55;;;;;;;18.65;8.02;;;589.30;2432.00;;;;;;5073058;28;20036;-70
2023/06/03 08:21:29;;;;;;;13.48;7.85;;;589.40;2432.00;;;;;;5062181;28;20029;-70
2023/06/03 08:23:55;;;;;;;13.55;7.95;;;589.30;2432.00;;;;;;5062561;28;20090;-69
2023/06/03 08:26:21;;;;;;;16.75;7.03;;;589.30;2432.00;;;;;;5072995;28;20248;-70
2023/06/03 08:28:48;;;;;;;18.60;7.95;;;589.30;2432.00;;;;;;5066825;28;20025;-71
2023/06/03 08:31:13;;;;;;;15.35;8.13;;;589.40;2432.00;;;;;;5072543;28;20056;-70
2023/06/03 08:33:39;;;;;;;13.88;8.38;;;589.50;2432.00;;;;;;5071425;28;20393;-69
2023/06/03 08:36:05;;;;;;;14.25;8.32;;;589.50;2432.00;;;;;;5067202;28;20040;-69
2023/06/03 08:38:31;;;;;;;16.23;8.48;;;589.50;2432.00;;;;;;5072819;28;20099;-70
2023/06/03 08:40:58;;;;;;;15.27;8.68;;;589.50;2432.00;;;;;;5072767;28;20017;-69
2023/06/03 08:43:31;;;;;;;16.60;7.80;;;589.50;2432.00;;;;;;5072142;28;20096;-69
2023/06/03 08:46:27;;;;;;;18.48;8.10;;;589.60;2432.00;;;;;;5069058;28;20130;-73
2023/06/03 08:49:27;;;;;;;15.40;7.07;;;589.60;2432.00;;;;;;5070025;28;20028;-70
2023/06/03 08:51:56;;;;;;;15.35;7.93;;;589.60;2432.00;;;;;;5069667;28;20460;-70
2023/06/03 08:54:23;;;;;;;13.93;7.32;;;;;;;;;;5072637;28;20194;-70
2023/06/03 08:57:10;;;;;;;14.63;8.00;;;614.40;2432.00;;;;;;5072367;28;20028;-71
2023/06/03 08:59:40;;;;;;;22.17;7.03;;;614.40;2432.00;;;;;;5070507;28;20037;-69
2023/06/03 09:02:10;;;;;;;14.35;7.75;;;614.50;2432.00;;;;;;5072722;28;20052;-70
2023/06/03 09:04:36;;;;;;;14.90;7.55;;;;;;;;;;5072440;28;20071;-70
2023/06/03 09:07:04;;;;;;;18.80;7.68;;;614.70;2432.00;;;;;;5072258;28;20032;-70
2023/06/03 09:09:31;;;;;;;17.55;7.60;;;614.70;2432.00;;;;;;5072344;28;20035;-72
2023/06/03 09:11:58;;;;;;;12.82;8.07;;;614.80;2432.00;;;;;;5071786;28;20020;-71
2023/06/03 09:14:25;;;;;;;13.95;7.20;;;614.80;2432.00;;;;;;5069752;28;20499;-73
2023/06/03 09:16:52;;;;;;;15.32;6.25;;;614.80;2432.00;;;;;;5067480;28;20063;-70
2023/06/03 09:19:19;;;;;;;12.88;6.70;;;614.90;2432.00;;;;;;5072283;28;20122;-71
2023/06/03 09:21:46;;;;;;;12.77;6.57;;;615.00;2432.00;;;;;;5071800;28;20040;-71
2023/06/03 09:24:12;;;;;;;12.55;6.35;;;615.10;2432.00;;;;;;5069466;28;20359;-71
2023/06/03 09:26:39;;;;;;;18.63;7.03;;;;;;;;;;5066853;28;20105;-73
2023/06/03 09:29:06;;;;;;;12.68;6.22;;;615.20;2432.00;;;;;;5072235;28;20028;-69
2023/06/03 09:31:32;;;;;;;12.40;7.20;;;615.30;2432.00;;;;;;5072063;28;20135;-69
2023/06/03 09:33:58;;;;;;;11.48;6.35;;;640.10;2432.00;;;;;;5072428;28;20100;-69
2023/06/03 09:36:25;;;;;;;12.02;6.70;;;640.20;2432.00;;;;;;5072038;28;20074;-70
2023/06/03 09:38:54;;;;;;;12.85;6.07;;;640.30;2432.00;;;;;;5072667;28;20438;-69
2023/06/03 09:41:21;;;;;;;13.23;5.95;;;640.10;2432.00;;;;;;5073300;28;20009;-70
2023/06/03 09:43:58;;;;;;;10.98;5.93;;;640.40;2432.00;;;;;;5076203;28;20497;-69
2023/06/03 09:46:26;;;;;;;11.88;6.55;;;640.60;2432.00;;;;;;5075949;28;20017;-70
2023/06/03 09:48:52;;;;;;;12.63;6.22;;;640.70;2355.20;;;;;;5075788;28;20120;-70
2023/06/03 09:51:17;;;;;;;13.32;6.18;;;640.90;2432.00;;;;;;5076109;28;20493;-69
2023/06/03 09:53:43;;;;;;;17.70;6.82;;;665.60;2432.00;;;;;;5071124;28;20126;-75
2023/06/03 09:56:23;;;;;;;16.27;6.07;;;665.60;2329.60;;;;;;5075960;28;20024;-73
2023/06/03 09:58:51;;;;;;;11.88;5.90;;;665.90;2329.60;;;;;;5075682;28;20020;-70
2023/06/03 10:01:30;;;;;;;10.30;5.50;;;666.00;2278.40;;;;;;5075270;28;20032;-72
2023/06/03 10:04:00;;;;;;;12.30;5.82;;;;;;;;;;5072344;28;20054;-78
2023/06/03 10:06:26;;;;;;;11.60;5.50;;;666.30;2304.00;;;;;;5073815;28;20179;-70
2023/06/03 10:08:52;;;;;;;7.68;5.10;;;666.30;2201.60;;;;;;5068853;28;20029;-70
2023/06/03 10:11:18;;;;;;;10.90;4.85;;;691.20;2227.20;;;;;;5062757;28;20071;-71
2023/06/03 10:13:44;;;;;;;10.00;5.40;;;691.20;2022.40;;;;;;5070988;28;20446;-73
2023/06/03 10:16:11;;;;;;;10.98;5.03;;;691.30;1945.60;;;;;;5075104;28;20029;-69
2023/06/03 10:18:41;;;;;;;10.95;5.43;;;691.30;2048.00;;;;;;5071507;28;20048;-70
2023/06/03 10:21:13;;;;;;;55.05;9.32;;;691.60;2073.60;;;;;;5070564;28;20036;-70
2023/06/03 10:23:41;;;;;;;12.10;5.85;;;691.60;1945.60;;;;;;5068246;28;20466;-73
2023/06/03 10:26:07;;;;;;;8.80;5.32;;;691.60;1996.80;;;;;;5075284;28;20029;-80
2023/06/03 10:28:33;;;;;;;10.85;4.28;;;691.60;1920.00;;;;;;5069813;28;20025;-75
2023/06/03 10:31:04;;;;;;;13.35;5.13;;;691.60;1996.80;;;;;;5074317;28;20386;-79
2023/06/03 10:33:31;;;;;;;10.00;5.18;;;691.70;1894.40;;;;;;5067915;28;20525;-68
2023/06/03 10:35:58;;;;;;;8.38;5.03;;;691.80;1894.40;;;;;;5074720;28;20027;-80
2023/06/03 10:38:25;;;;;;;7.20;4.93;;;691.80;1817.60;;;;;;5074930;28;20107;-71
2023/06/03 10:40:51;;;;;;;11.02;4.20;;;692.10;1920.00;;;;;;5075163;28;20044;-69
2023/06/03 10:43:18;;;;;;;8.55;4.72;;;716.80;1971.20;;;;;;5071208;28;20028;-71
2023/06/03 10:45:44;;;;;;;10.20;5.28;;;;;;;;;;5066427;28;20032;-69
2023/06/03 10:48:13;;;;;;;13.95;4.80;;;;;;;;;;5074999;28;20378;-71
2023/06/03 10:50:45;;;;;;;12.50;4.45;;;;;;;;;;5074870;28;20071;-69
2023/06/03 10:53:14;;;;;;;10.50;4.55;;;;;;;;;;5074600;28;20016;-71
2023/06/03 10:55:43;;;;;;;12.68;4.45;;;;;;;;;;5074734;28;20486;-69
2023/06/03 10:58:14;;;;;;;9.63;4.60;;;;;;;;;;5072865;28;20047;-71
2023/06/03 11:01:00;;;;;;;10.52;4.63;;;;;;;;;;5074902;28;20025;-76
2023/06/03 11:03:30;;;;;;;9.95;4.68;;;717.00;1740.80;;;;;;5074702;28;20053;-71
2023/06/03 11:06:21;;;;;;;11.82;4.82;;;717.10;1689.60;;;;;;5074803;28;20048;-69
2023/06/03 11:09:07;;;;;;;7.75;4.22;;;717.10;1664.00;;;;;;5074864;28;20066;-70
2023/06/03 11:11:39;;;;;;;;;;;717.10;1766.40;;;;;;5073280;28;20031;-70
2023/06/03 11:14:06;;;;;;;9.55;4.45;;;717.20;1766.40;;;;;;5074361;28;19904;-71
2023/06/03 11:16:54;;;;;;;8.27;4.80;;;717.20;1740.80;;;;;;5074491;28;20028;-70
2023/06/03 11:19:37;;;;;;;7.10;4.20;;;717.30;1766.40;;;;;;5073704;28;20028;-76
2023/06/03 11:22:04;;;;;;;8.85;4.55;;;717.40;1740.80;;;;;;5074445;28;20016;-69
2023/06/03 11:24:42;;;;;;;8.18;4.40;;;717.50;1664.00;;;;;;5074005;28;20519;-78
2023/06/03 11:27:14;;;;;;;7.10;4.18;;;717.30;1587.20;;;;;;5073400;28;20056;-75
2023/06/03 11:29:51;;;;;;;16.30;4.70;;;717.40;1612.80;;;;;;5074163;28;20048;-69
2023/06/03 11:32:22;;;;;;;10.40;4.68;;;717.40;1638.40;;;;;;5072764;28;20496;-70
2023/06/03 11:34:49;;;;;;;8.80;4.88;;;717.20;1612.80;;;;;;5074086;28;20501;-75
2023/06/03 11:37:17;;;;;;;7.95;4.90;;;717.40;1612.80;;;;;;5066341;28;20470;-70
2023/06/03 11:40:05;;;;;;;8.55;4.47;;;717.40;1587.20;;;;;;5074033;28;20078;-70
2023/06/03 11:42:51;;;;;;;8.95;4.47;;;717.50;1587.20;;;;;;5072734;28;20020;-76
2023/06/03 11:45:17;;;;;;;10.02;5.20;;;717.60;1587.20;;;;;;5054885;28;20044;-70
2023/06/03 11:47:53;;;;;;;12.07;5.18;;;717.50;1587.20;;;;;;5073432;28;20100;-69
2023/06/03 11:50:20;;;;;;;7.78;5.47;;;717.70;1612.80;;;;;;5069740;28;20071;-69
2023/06/03 11:52:46;;;;;;;13.85;4.72;;;742.40;1612.80;;;;;;5066451;28;20020;-70
2023/06/03 11:55:22;;;;;;;9.05;4.63;;;742.50;1612.80;;;;;;5073202;28;20028;-70
2023/06/03 11:57:47;;;;;;;9.32;4.47;;;742.50;1561.60;;;;;;5073428;28;20021;-70
2023/06/03 12:00:15;;;;;;;9.65;5.53;;;742.50;1536.00;;;;;;5073345;28;20098;-69
2023/06/03 12:02:42;;;;;;;11.30;3.95;;;742.40;1561.60;;;;;;5073386;28;20100;-74
2023/06/03 12:05:09;;;;;;;7.60;4.57;;;742.40;1510.40;;;;;;5072918;28;20024;-70
2023/06/03 12:07:34;;;;;;;10.35;4.60;;;742.40;1484.80;;;;;;5072657;28;20039;-70
2023/06/03 12:10:00;;;;;;;8.05;4.13;;;742.60;1510.40;;;;;;5073723;28;20021;-71
2023/06/03 12:12:26;;;;;;;13.20;4.72;;;742.50;1484.80;;;;;;5073498;28;20036;-72
2023/06/03 12:14:52;;;;;;;9.00;4.10;;;742.50;1484.80;;;;;;5073443;28;20085;-69
2023/06/03 12:17:19;;;;;;;7.88;4.22;;;742.50;1459.20;;;;;;5073204;28;20032;-70
2023/06/03 12:19:49;;;;;;;5.20;4.18;;;742.40;1459.20;;;;;;5073118;28;20024;-70
2023/06/03 12:22:24;;;;;;;7.22;4.03;;;717.70;1459.20;;;;;;5073379;28;20020;-70